sensor_id;sensor_type;location;lat;lon;timestamp;P1;durP1;ratioP1;P2;durP2;ratioP2
24557;SDS011;12726;49.148;8.582;2022-07-29T00:01:20;6.38;;;3.20;;
24557;SDS011;12726;49.148;8.582;2022-07-29T00:04:06;4.80;;;3.45;;
24557;SDS011;12726;49.148;8.582;2022-07-29T00:06:53;5.80;;;3.47;;
24557;SDS011;12726;49.148;8.582;2022-07-29T00:09:38;7.03;;;3.30;;
24557;SDS011;12726;49.148;8.582;2022-07-29T00:12:24;5.45;;;3.40;;
24557;SDS011;12726;49.148;8.582;2022-07-29T00:15:10;3.83;;;2.80;;
24557;SDS011;12726;49.148;8.582;2022-07-29T00:17:55;5.43;;;3.72;;
24557;SDS011;12726;49.148;8.582;2022-07-29T00:20:41;6.80;;;3.58;;
24557;SDS011;12726;49.148;8.582;2022-07-29T00:23:27;6.97;;;3.13;;
24557;SDS011;12726;49.148;8.582;2022-07-29T00:26:13;5.35;;;3.03;;
24557;SDS011;12726;49.148;8.582;2022-07-29T00:28:58;3.50;;;2.97;;
24557;SDS011;12726;49.148;8.582;2022-07-29T00:31:47;7.13;;;2.95;;
24557;SDS011;12726;49.148;8.582;2022-07-29T00:34:32;8.18;;;3.47;;
24557;SDS011;12726;49.148;8.582;2022-07-29T00:37:34;7.28;;;3.30;;
24557;SDS011;12726;49.148;8.582;2022-07-29T00:40:21;3.10;;;2.80;;
24557;SDS011;12726;49.148;8.582;2022-07-29T00:43:06;5.63;;;3.13;;
24557;SDS011;12726;49.148;8.582;2022-07-29T00:45:52;6.85;;;3.42;;
24557;SDS011;12726;49.148;8.582;2022-07-29T00:48:38;3.80;;;3.00;;
24557;SDS011;12726;49.148;8.582;2022-07-29T00:51:24;6.05;;;3.38;;
24557;SDS011;12726;49.148;8.582;2022-07-29T00:54:11;5.15;;;3.08;;
24557;SDS011;12726;49.148;8.582;2022-07-29T00:56:58;4.90;;;3.17;;
24557;SDS011;12726;49.148;8.582;2022-07-29T00:59:44;5.72;;;3.38;;
24557;SDS011;12726;49.148;8.582;2022-07-29T01:02:30;4.40;;;2.90;;
24557;SDS011;12726;49.148;8.582;2022-07-29T01:05:16;6.45;;;3.20;;
24557;SDS011;12726;49.148;8.582;2022-07-29T01:08:03;4.07;;;3.30;;
24557;SDS011;12726;49.148;8.582;2022-07-29T01:10:49;4.22;;;3.50;;
24557;SDS011;12726;49.148;8.582;2022-07-29T01:13:37;5.03;;;3.13;;
24557;SDS011;12726;49.148;8.582;2022-07-29T01:16:25;5.13;;;3.58;;
24557;SDS011;12726;49.148;8.582;2022-07-29T01:19:20;6.03;;;3.15;;
24557;SDS011;12726;49.148;8.582;2022-07-29T01:22:26;4.38;;;3.50;;
24557;SDS011;12726;49.148;8.582;2022-07-29T01:25:23;4.93;;;3.15;;
24557;SDS011;12726;49.148;8.582;2022-07-29T01:28:37;5.13;;;3.35;;
24557;SDS011;12726;49.148;8.582;2022-07-29T01:31:27;6.53;;;3.63;;
24557;SDS011;12726;49.148;8.582;2022-07-29T01:34:25;3.35;;;3.05;;
24557;SDS011;12726;49.148;8.582;2022-07-29T01:37:18;4.43;;;3.28;;
24557;SDS011;12726;49.148;8.582;2022-07-29T01:40:08;5.88;;;3.80;;
24557;SDS011;12726;49.148;8.582;2022-07-29T01:42:59;5.65;;;3.25;;
24557;SDS011;12726;49.148;8.582;2022-07-29T01:45:52;5.40;;;3.50;;
24557;SDS011;12726;49.148;8.582;2022-07-29T01:48:45;5.47;;;3.67;;
24557;SDS011;12726;49.148;8.582;2022-07-29T01:51:35;4.82;;;3.70;;
24557;SDS011;12726;49.148;8.582;2022-07-29T01:54:29;3.67;;;3.17;;
24557;SDS011;12726;49.148;8.582;2022-07-29T01:57:19;5.25;;;3.55;;
24557;SDS011;12726;49.148;8.582;2022-07-29T02:00:08;6.10;;;3.47;;
24557;SDS011;12726;49.148;8.582;2022-07-29T02:02:56;3.35;;;3.03;;
24557;SDS011;12726;49.148;8.582;2022-07-29T02:05:43;7.57;;;3.58;;
24557;SDS011;12726;49.148;8.582;2022-07-29T02:08:32;4.13;;;3.13;;
24557;SDS011;12726;49.148;8.582;2022-07-29T02:11:19;6.40;;;3.42;;
24557;SDS011;12726;49.148;8.582;2022-07-29T02:14:04;4.70;;;3.15;;
24557;SDS011;12726;49.148;8.582;2022-07-29T02:16:52;5.30;;;3.40;;
24557;SDS011;12726;49.148;8.582;2022-07-29T02:19:42;6.78;;;3.45;;
24557;SDS011;12726;49.148;8.582;2022-07-29T02:22:30;4.75;;;3.10;;
24557;SDS011;12726;49.148;8.582;2022-07-29T02:25:18;4.97;;;3.08;;
24557;SDS011;12726;49.148;8.582;2022-07-29T02:28:06;4.47;;;3.25;;
24557;SDS011;12726;49.148;8.582;2022-07-29T02:30:52;4.82;;;3.10;;
24557;SDS011;12726;49.148;8.582;2022-07-29T02:33:40;3.78;;;2.97;;
24557;SDS011;12726;49.148;8.582;2022-07-29T02:36:28;5.68;;;3.30;;
24557;SDS011;12726;49.148;8.582;2022-07-29T02:39:15;5.53;;;3.05;;
24557;SDS011;12726;49.148;8.582;2022-07-29T02:42:03;5.68;;;3.40;;
24557;SDS011;12726;49.148;8.582;2022-07-29T02:44:52;5.50;;;3.28;;
24557;SDS011;12726;49.148;8.582;2022-07-29T02:47:39;4.47;;;3.22;;
24557;SDS011;12726;49.148;8.582;2022-07-29T02:50:29;4.43;;;3.42;;
24557;SDS011;12726;49.148;8.582;2022-07-29T02:53:22;4.43;;;3.63;;
24557;SDS011;12726;49.148;8.582;2022-07-29T02:56:10;5.45;;;3.60;;
24557;SDS011;12726;49.148;8.582;2022-07-29T02:59:00;8.05;;;3.88;;
24557;SDS011;12726;49.148;8.582;2022-07-29T03:01:51;4.88;;;3.60;;
24557;SDS011;12726;49.148;8.582;2022-07-29T03:04:37;5.32;;;3.70;;
24557;SDS011;12726;49.148;8.582;2022-07-29T03:07:26;5.45;;;3.58;;
24557;SDS011;12726;49.148;8.582;2022-07-29T03:10:14;5.00;;;3.60;;
24557;SDS011;12726;49.148;8.582;2022-07-29T03:12:59;5.20;;;3.78;;
24557;SDS011;12726;49.148;8.582;2022-07-29T03:15:45;4.50;;;3.72;;
24557;SDS011;12726;49.148;8.582;2022-07-29T03:18:32;5.78;;;4.03;;
24557;SDS011;12726;49.148;8.582;2022-07-29T03:21:18;5.03;;;3.70;;
24557;SDS011;12726;49.148;8.582;2022-07-29T03:24:04;5.03;;;3.90;;
24557;SDS011;12726;49.148;8.582;2022-07-29T03:26:51;4.75;;;3.80;;
24557;SDS011;12726;49.148;8.582;2022-07-29T03:29:37;4.63;;;3.95;;
24557;SDS011;12726;49.148;8.582;2022-07-29T03:32:22;4.35;;;3.72;;
24557;SDS011;12726;49.148;8.582;2022-07-29T03:35:08;4.18;;;3.75;;
24557;SDS011;12726;49.148;8.582;2022-07-29T03:37:53;6.30;;;3.65;;
24557;SDS011;12726;49.148;8.582;2022-07-29T03:40:40;5.32;;;4.07;;
24557;SDS011;12726;49.148;8.582;2022-07-29T03:43:34;4.40;;;3.88;;
24557;SDS011;12726;49.148;8.582;2022-07-29T03:46:22;4.38;;;4.00;;
24557;SDS011;12726;49.148;8.582;2022-07-29T03:49:11;4.45;;;3.67;;
24557;SDS011;12726;49.148;8.582;2022-07-29T03:51:59;6.00;;;3.80;;
24557;SDS011;12726;49.148;8.582;2022-07-29T03:54:45;6.25;;;3.88;;
24557;SDS011;12726;49.148;8.582;2022-07-29T03:57:31;5.10;;;3.45;;
24557;SDS011;12726;49.148;8.582;2022-07-29T04:00:19;7.55;;;4.45;;
24557;SDS011;12726;49.148;8.582;2022-07-29T04:03:05;7.35;;;3.80;;
24557;SDS011;12726;49.148;8.582;2022-07-29T04:05:57;5.13;;;3.40;;
24557;SDS011;12726;49.148;8.582;2022-07-29T04:08:44;4.47;;;3.80;;
24557;SDS011;12726;49.148;8.582;2022-07-29T04:11:29;5.35;;;3.75;;
24557;SDS011;12726;49.148;8.582;2022-07-29T04:14:15;5.20;;;4.10;;
24557;SDS011;12726;49.148;8.582;2022-07-29T04:17:02;5.43;;;4.20;;
24557;SDS011;12726;49.148;8.582;2022-07-29T04:19:49;4.68;;;3.92;;
24557;SDS011;12726;49.148;8.582;2022-07-29T04:22:34;4.32;;;3.92;;
24557;SDS011;12726;49.148;8.582;2022-07-29T04:25:20;6.60;;;4.25;;
24557;SDS011;12726;49.148;8.582;2022-07-29T04:28:06;4.75;;;3.83;;
24557;SDS011;12726;49.148;8.582;2022-07-29T04:30:51;5.40;;;3.80;;
24557;SDS011;12726;49.148;8.582;2022-07-29T04:33:38;6.90;;;4.40;;
24557;SDS011;12726;49.148;8.582;2022-07-29T04:36:24;4.53;;;3.08;;
24557;SDS011;12726;49.148;8.582;2022-07-29T04:39:09;5.43;;;3.72;;
24557;SDS011;12726;49.148;8.582;2022-07-29T04:41:55;5.25;;;3.50;;
24557;SDS011;12726;49.148;8.582;2022-07-29T04:44:40;7.00;;;3.95;;
24557;SDS011;12726;49.148;8.582;2022-07-29T04:47:26;4.30;;;3.25;;
24557;SDS011;12726;49.148;8.582;2022-07-29T04:50:13;4.22;;;3.55;;
24557;SDS011;12726;49.148;8.582;2022-07-29T04:52:58;6.50;;;3.70;;
24557;SDS011;12726;49.148;8.582;2022-07-29T04:55:44;5.20;;;3.53;;
24557;SDS011;12726;49.148;8.582;2022-07-29T04:58:29;5.53;;;3.40;;
24557;SDS011;12726;49.148;8.582;2022-07-29T05:01:15;5.32;;;3.75;;
24557;SDS011;12726;49.148;8.582;2022-07-29T05:04:00;5.50;;;3.47;;
24557;SDS011;12726;49.148;8.582;2022-07-29T05:06:47;7.10;;;4.28;;
24557;SDS011;12726;49.148;8.582;2022-07-29T05:09:32;4.43;;;3.17;;
24557;SDS011;12726;49.148;8.582;2022-07-29T05:12:18;4.95;;;3.80;;
24557;SDS011;12726;49.148;8.582;2022-07-29T05:15:03;8.50;;;4.13;;
24557;SDS011;12726;49.148;8.582;2022-07-29T05:17:49;6.30;;;3.83;;
24557;SDS011;12726;49.148;8.582;2022-07-29T05:20:35;4.57;;;3.90;;
24557;SDS011;12726;49.148;8.582;2022-07-29T05:23:22;7.13;;;4.00;;
24557;SDS011;12726;49.148;8.582;2022-07-29T05:26:07;7.68;;;3.83;;
24557;SDS011;12726;49.148;8.582;2022-07-29T05:28:52;4.47;;;3.72;;
24557;SDS011;12726;49.148;8.582;2022-07-29T05:31:38;6.07;;;3.88;;
24557;SDS011;12726;49.148;8.582;2022-07-29T05:34:24;3.92;;;3.53;;
24557;SDS011;12726;49.148;8.582;2022-07-29T05:37:09;5.28;;;3.40;;
24557;SDS011;12726;49.148;8.582;2022-07-29T05:39:58;4.65;;;3.78;;
24557;SDS011;12726;49.148;8.582;2022-07-29T05:42:43;6.40;;;3.38;;
24557;SDS011;12726;49.148;8.582;2022-07-29T05:45:29;4.55;;;3.50;;
24557;SDS011;12726;49.148;8.582;2022-07-29T05:48:15;4.80;;;4.13;;
24557;SDS011;12726;49.148;8.582;2022-07-29T05:51:00;6.60;;;4.20;;
24557;SDS011;12726;49.148;8.582;2022-07-29T05:53:46;6.13;;;4.28;;
24557;SDS011;12726;49.148;8.582;2022-07-29T05:56:33;7.50;;;4.82;;
24557;SDS011;12726;49.148;8.582;2022-07-29T05:59:20;7.47;;;4.55;;
24557;SDS011;12726;49.148;8.582;2022-07-29T06:02:05;7.07;;;4.00;;
24557;SDS011;12726;49.148;8.582;2022-07-29T06:04:51;4.78;;;4.25;;
24557;SDS011;12726;49.148;8.582;2022-07-29T06:07:38;6.18;;;3.88;;
24557;SDS011;12726;49.148;8.582;2022-07-29T06:10:23;5.35;;;4.03;;
24557;SDS011;12726;49.148;8.582;2022-07-29T06:13:10;5.65;;;4.60;;
24557;SDS011;12726;49.148;8.582;2022-07-29T06:15:56;9.70;;;4.38;;
24557;SDS011;12726;49.148;8.582;2022-07-29T06:18:41;9.32;;;4.78;;
24557;SDS011;12726;49.148;8.582;2022-07-29T06:21:26;7.28;;;5.18;;
24557;SDS011;12726;49.148;8.582;2022-07-29T06:24:12;7.43;;;4.67;;
24557;SDS011;12726;49.148;8.582;2022-07-29T06:26:58;11.45;;;4.93;;
24557;SDS011;12726;49.148;8.582;2022-07-29T06:29:45;8.93;;;4.60;;
24557;SDS011;12726;49.148;8.582;2022-07-29T06:32:30;7.75;;;4.90;;
24557;SDS011;12726;49.148;8.582;2022-07-29T06:35:15;7.30;;;4.65;;
24557;SDS011;12726;49.148;8.582;2022-07-29T06:38:01;6.93;;;4.47;;
24557;SDS011;12726;49.148;8.582;2022-07-29T06:40:47;10.18;;;4.25;;
24557;SDS011;12726;49.148;8.582;2022-07-29T06:43:45;7.47;;;4.75;;
24557;SDS011;12726;49.148;8.582;2022-07-29T06:46:32;7.35;;;4.65;;
24557;SDS011;12726;49.148;8.582;2022-07-29T06:49:17;7.50;;;4.85;;
24557;SDS011;12726;49.148;8.582;2022-07-29T06:52:03;10.15;;;4.78;;
24557;SDS011;12726;49.148;8.582;2022-07-29T06:54:51;6.95;;;4.38;;
24557;SDS011;12726;49.148;8.582;2022-07-29T06:57:38;6.80;;;5.20;;
24557;SDS011;12726;49.148;8.582;2022-07-29T07:00:24;8.57;;;4.70;;
24557;SDS011;12726;49.148;8.582;2022-07-29T07:03:11;7.93;;;4.35;;
24557;SDS011;12726;49.148;8.582;2022-07-29T07:05:56;9.82;;;4.78;;
24557;SDS011;12726;49.148;8.582;2022-07-29T07:08:42;9.15;;;4.25;;
24557;SDS011;12726;49.148;8.582;2022-07-29T07:11:27;7.15;;;4.43;;
24557;SDS011;12726;49.148;8.582;2022-07-29T07:14:13;6.88;;;4.30;;
24557;SDS011;12726;49.148;8.582;2022-07-29T07:16:59;6.55;;;4.18;;
24557;SDS011;12726;49.148;8.582;2022-07-29T07:19:51;7.43;;;4.50;;
24557;SDS011;12726;49.148;8.582;2022-07-29T07:22:37;7.00;;;4.13;;
24557;SDS011;12726;49.148;8.582;2022-07-29T07:25:28;5.70;;;4.00;;
24557;SDS011;12726;49.148;8.582;2022-07-29T07:28:14;9.32;;;4.13;;
24557;SDS011;12726;49.148;8.582;2022-07-29T07:30:59;4.97;;;3.42;;
24557;SDS011;12726;49.148;8.582;2022-07-29T07:33:45;7.50;;;3.95;;
24557;SDS011;12726;49.148;8.582;2022-07-29T07:36:32;4.93;;;3.92;;
24557;SDS011;12726;49.148;8.582;2022-07-29T07:39:17;7.43;;;3.80;;
24557;SDS011;12726;49.148;8.582;2022-07-29T07:42:03;6.90;;;4.07;;
24557;SDS011;12726;49.148;8.582;2022-07-29T07:44:48;7.00;;;4.00;;
24557;SDS011;12726;49.148;8.582;2022-07-29T07:47:34;5.20;;;3.70;;
24557;SDS011;12726;49.148;8.582;2022-07-29T07:50:19;11.82;;;3.50;;
24557;SDS011;12726;49.148;8.582;2022-07-29T07:53:06;6.85;;;3.40;;
24557;SDS011;12726;49.148;8.582;2022-07-29T07:55:51;8.60;;;3.50;;
24557;SDS011;12726;49.148;8.582;2022-07-29T07:58:37;6.32;;;4.00;;
24557;SDS011;12726;49.148;8.582;2022-07-29T08:01:22;6.90;;;3.45;;
24557;SDS011;12726;49.148;8.582;2022-07-29T08:04:08;5.55;;;3.70;;
24557;SDS011;12726;49.148;8.582;2022-07-29T08:06:54;6.45;;;3.80;;
24557;SDS011;12726;49.148;8.582;2022-07-29T08:09:41;5.80;;;3.60;;
24557;SDS011;12726;49.148;8.582;2022-07-29T08:12:27;5.45;;;3.50;;
24557;SDS011;12726;49.148;8.582;2022-07-29T08:15:12;5.32;;;4.00;;
24557;SDS011;12726;49.148;8.582;2022-07-29T08:17:58;8.82;;;3.72;;
24557;SDS011;12726;49.148;8.582;2022-07-29T08:20:43;8.23;;;3.95;;
24557;SDS011;12726;49.148;8.582;2022-07-29T08:23:29;5.38;;;3.40;;
24557;SDS011;12726;49.148;8.582;2022-07-29T08:26:23;8.82;;;4.30;;
24557;SDS011;12726;49.148;8.582;2022-07-29T08:29:09;4.88;;;3.70;;
24557;SDS011;12726;49.148;8.582;2022-07-29T08:31:54;7.32;;;3.60;;
24557;SDS011;12726;49.148;8.582;2022-07-29T08:34:43;5.78;;;3.67;;
24557;SDS011;12726;49.148;8.582;2022-07-29T08:37:30;6.38;;;3.92;;
24557;SDS011;12726;49.148;8.582;2022-07-29T08:40:15;4.50;;;3.30;;
24557;SDS011;12726;49.148;8.582;2022-07-29T08:43:05;6.07;;;3.42;;
24557;SDS011;12726;49.148;8.582;2022-07-29T08:45:51;4.72;;;3.00;;
24557;SDS011;12726;49.148;8.582;2022-07-29T08:48:37;7.95;;;3.63;;
24557;SDS011;12726;49.148;8.582;2022-07-29T08:51:23;7.20;;;3.70;;
24557;SDS011;12726;49.148;8.582;2022-07-29T08:54:10;6.45;;;3.70;;
24557;SDS011;12726;49.148;8.582;2022-07-29T08:57:01;5.72;;;3.22;;
24557;SDS011;12726;49.148;8.582;2022-07-29T08:59:48;4.60;;;3.03;;
24557;SDS011;12726;49.148;8.582;2022-07-29T09:02:39;4.97;;;3.10;;
24557;SDS011;12726;49.148;8.582;2022-07-29T09:05:26;5.25;;;3.08;;
24557;SDS011;12726;49.148;8.582;2022-07-29T09:08:12;6.80;;;3.40;;
24557;SDS011;12726;49.148;8.582;2022-07-29T09:10:58;4.35;;;3.00;;
24557;SDS011;12726;49.148;8.582;2022-07-29T09:13:45;4.82;;;2.80;;
24557;SDS011;12726;49.148;8.582;2022-07-29T09:16:53;5.20;;;2.55;;
24557;SDS011;12726;49.148;8.582;2022-07-29T09:19:47;4.03;;;2.15;;
24557;SDS011;12726;49.148;8.582;2022-07-29T09:22:32;4.28;;;2.50;;
24557;SDS011;12726;49.148;8.582;2022-07-29T09:25:31;5.68;;;2.90;;
24557;SDS011;12726;49.148;8.582;2022-07-29T09:28:17;5.32;;;2.70;;
24557;SDS011;12726;49.148;8.582;2022-07-29T09:31:07;3.22;;;2.75;;
24557;SDS011;12726;49.148;8.582;2022-07-29T09:33:54;2.47;;;2.25;;
24557;SDS011;12726;49.148;8.582;2022-07-29T09:36:44;5.43;;;2.85;;
24557;SDS011;12726;49.148;8.582;2022-07-29T09:39:31;5.85;;;2.42;;
24557;SDS011;12726;49.148;8.582;2022-07-29T09:42:27;5.57;;;2.50;;
24557;SDS011;12726;49.148;8.582;2022-07-29T09:45:26;4.72;;;2.80;;
24557;SDS011;12726;49.148;8.582;2022-07-29T09:48:17;3.63;;;2.92;;
24557;SDS011;12726;49.148;8.582;2022-07-29T09:51:05;6.88;;;3.17;;
24557;SDS011;12726;49.148;8.582;2022-07-29T09:54:02;5.05;;;2.65;;
24557;SDS011;12726;49.148;8.582;2022-07-29T09:57:08;6.28;;;2.95;;
24557;SDS011;12726;49.148;8.582;2022-07-29T10:00:07;4.10;;;2.80;;
24557;SDS011;12726;49.148;8.582;2022-07-29T10:02:54;5.80;;;3.08;;
24557;SDS011;12726;49.148;8.582;2022-07-29T10:05:46;4.47;;;2.83;;
24557;SDS011;12726;49.148;8.582;2022-07-29T10:08:51;7.63;;;3.42;;
24557;SDS011;12726;49.148;8.582;2022-07-29T10:11:37;4.97;;;2.33;;
24557;SDS011;12726;49.148;8.582;2022-07-29T10:14:22;4.13;;;2.58;;
24557;SDS011;12726;49.148;8.582;2022-07-29T10:17:09;4.47;;;2.60;;
24557;SDS011;12726;49.148;8.582;2022-07-29T10:20:03;4.97;;;2.53;;
24557;SDS011;12726;49.148;8.582;2022-07-29T10:22:50;4.85;;;2.63;;
24557;SDS011;12726;49.148;8.582;2022-07-29T10:25:38;6.75;;;2.75;;
24557;SDS011;12726;49.148;8.582;2022-07-29T10:28:23;6.07;;;2.53;;
24557;SDS011;12726;49.148;8.582;2022-07-29T10:31:18;5.88;;;2.33;;
24557;SDS011;12726;49.148;8.582;2022-07-29T10:34:13;6.53;;;2.70;;
24557;SDS011;12726;49.148;8.582;2022-07-29T10:37:10;3.95;;;2.28;;
24557;SDS011;12726;49.148;8.582;2022-07-29T10:40:05;3.47;;;2.30;;
24557;SDS011;12726;49.148;8.582;2022-07-29T10:43:16;7.35;;;2.40;;
24557;SDS011;12726;49.148;8.582;2022-07-29T10:46:04;6.00;;;2.30;;
24557;SDS011;12726;49.148;8.582;2022-07-29T10:49:09;7.57;;;2.38;;
24557;SDS011;12726;49.148;8.582;2022-07-29T10:51:57;6.55;;;2.10;;
24557;SDS011;12726;49.148;8.582;2022-07-29T10:54:46;6.47;;;2.20;;
24557;SDS011;12726;49.148;8.582;2022-07-29T10:57:34;5.53;;;2.20;;
24557;SDS011;12726;49.148;8.582;2022-07-29T11:00:31;4.25;;;2.35;;
24557;SDS011;12726;49.148;8.582;2022-07-29T11:06:35;2.70;;;2.50;;
24557;SDS011;12726;49.148;8.582;2022-07-29T11:13:07;3.05;;;2.05;;
24557;SDS011;12726;49.148;8.582;2022-07-29T11:15:54;4.03;;;2.67;;
24557;SDS011;12726;49.148;8.582;2022-07-29T11:22:01;3.70;;;2.30;;
24557;SDS011;12726;49.148;8.582;2022-07-29T11:24:47;6.13;;;2.30;;
24557;SDS011;12726;49.148;8.582;2022-07-29T11:28:08;3.40;;;2.35;;
24557;SDS011;12726;49.148;8.582;2022-07-29T11:30:57;4.70;;;2.55;;
24557;SDS011;12726;49.148;8.582;2022-07-29T11:33:44;4.93;;;2.50;;
24557;SDS011;12726;49.148;8.582;2022-07-29T11:36:30;8.85;;;2.45;;
24557;SDS011;12726;49.148;8.582;2022-07-29T11:39:27;5.20;;;2.45;;
24557;SDS011;12726;49.148;8.582;2022-07-29T11:45:44;2.42;;;2.00;;
24557;SDS011;12726;49.148;8.582;2022-07-29T11:48:32;4.75;;;2.20;;
24557;SDS011;12726;49.148;8.582;2022-07-29T11:51:18;4.55;;;2.40;;
24557;SDS011;12726;49.148;8.582;2022-07-29T11:54:04;4.70;;;2.50;;
24557;SDS011;12726;49.148;8.582;2022-07-29T11:56:50;5.28;;;2.45;;
24557;SDS011;12726;49.148;8.582;2022-07-29T11:59:38;3.58;;;2.30;;
24557;SDS011;12726;49.148;8.582;2022-07-29T12:02:25;7.03;;;2.20;;
24557;SDS011;12726;49.148;8.582;2022-07-29T12:05:34;6.47;;;2.60;;
24557;SDS011;12726;49.148;8.582;2022-07-29T12:08:22;3.67;;;2.20;;
24557;SDS011;12726;49.148;8.582;2022-07-29T12:11:15;3.55;;;2.20;;
24557;SDS011;12726;49.148;8.582;2022-07-29T12:14:01;5.55;;;2.53;;
24557;SDS011;12726;49.148;8.582;2022-07-29T12:16:47;4.10;;;2.08;;
24557;SDS011;12726;49.148;8.582;2022-07-29T12:19:41;4.60;;;2.45;;
24557;SDS011;12726;49.148;8.582;2022-07-29T12:22:29;4.63;;;2.45;;
24557;SDS011;12726;49.148;8.582;2022-07-29T12:25:15;4.70;;;2.55;;
24557;SDS011;12726;49.148;8.582;2022-07-29T12:28:03;5.80;;;2.25;;
24557;SDS011;12726;49.148;8.582;2022-07-29T12:30:50;3.30;;;2.22;;
24557;SDS011;12726;49.148;8.582;2022-07-29T12:33:36;2.80;;;2.13;;
24557;SDS011;12726;49.148;8.582;2022-07-29T12:36:21;5.03;;;2.63;;
24557;SDS011;12726;49.148;8.582;2022-07-29T12:39:08;5.22;;;2.17;;
24557;SDS011;12726;49.148;8.582;2022-07-29T12:41:54;4.32;;;2.88;;
24557;SDS011;12726;49.148;8.582;2022-07-29T12:44:43;5.95;;;3.33;;
24557;SDS011;12726;49.148;8.582;2022-07-29T12:47:30;4.82;;;2.60;;
24557;SDS011;12726;49.148;8.582;2022-07-29T12:50:15;6.35;;;2.45;;
24557;SDS011;12726;49.148;8.582;2022-07-29T12:53:08;5.68;;;2.60;;
24557;SDS011;12726;49.148;8.582;2022-07-29T12:55:56;4.05;;;2.30;;
24557;SDS011;12726;49.148;8.582;2022-07-29T12:58:45;7.97;;;2.20;;
24557;SDS011;12726;49.148;8.582;2022-07-29T13:01:35;5.43;;;2.10;;
24557;SDS011;12726;49.148;8.582;2022-07-29T13:04:25;2.90;;;2.00;;
24557;SDS011;12726;49.148;8.582;2022-07-29T13:07:11;3.75;;;2.40;;
24557;SDS011;12726;49.148;8.582;2022-07-29T13:10:09;4.63;;;2.50;;
24557;SDS011;12726;49.148;8.582;2022-07-29T13:13:04;4.88;;;2.50;;
24557;SDS011;12726;49.148;8.582;2022-07-29T13:16:04;3.47;;;2.45;;
24557;SDS011;12726;49.148;8.582;2022-07-29T13:19:02;2.45;;;2.17;;
24557;SDS011;12726;49.148;8.582;2022-07-29T13:21:49;4.25;;;2.38;;
24557;SDS011;12726;49.148;8.582;2022-07-29T13:24:46;4.30;;;2.40;;
24557;SDS011;12726;49.148;8.582;2022-07-29T13:27:37;4.32;;;2.40;;
24557;SDS011;12726;49.148;8.582;2022-07-29T13:30:25;3.22;;;1.80;;
24557;SDS011;12726;49.148;8.582;2022-07-29T13:33:11;7.47;;;2.47;;
24557;SDS011;12726;49.148;8.582;2022-07-29T13:35:56;4.88;;;2.08;;
24557;SDS011;12726;49.148;8.582;2022-07-29T13:38:42;3.65;;;2.10;;
24557;SDS011;12726;49.148;8.582;2022-07-29T13:41:28;2.88;;;1.85;;
24557;SDS011;12726;49.148;8.582;2022-07-29T13:44:13;4.65;;;1.98;;
24557;SDS011;12726;49.148;8.582;2022-07-29T13:47:00;4.80;;;2.45;;
24557;SDS011;12726;49.148;8.582;2022-07-29T13:49:46;2.63;;;1.90;;
24557;SDS011;12726;49.148;8.582;2022-07-29T13:52:31;4.63;;;1.80;;
24557;SDS011;12726;49.148;8.582;2022-07-29T13:55:17;5.28;;;1.83;;
24557;SDS011;12726;49.148;8.582;2022-07-29T13:58:03;6.93;;;2.15;;
24557;SDS011;12726;49.148;8.582;2022-07-29T14:00:48;5.47;;;1.42;;
24557;SDS011;12726;49.148;8.582;2022-07-29T14:03:36;3.05;;;1.67;;
24557;SDS011;12726;49.148;8.582;2022-07-29T14:06:25;4.40;;;1.63;;
24557;SDS011;12726;49.148;8.582;2022-07-29T14:09:10;5.00;;;1.55;;
24557;SDS011;12726;49.148;8.582;2022-07-29T14:11:56;4.43;;;1.33;;
24557;SDS011;12726;49.148;8.582;2022-07-29T14:14:41;2.20;;;1.48;;
24557;SDS011;12726;49.148;8.582;2022-07-29T14:17:27;2.58;;;1.67;;
24557;SDS011;12726;49.148;8.582;2022-07-29T14:20:13;4.63;;;1.63;;
24557;SDS011;12726;49.148;8.582;2022-07-29T14:23:00;2.78;;;1.85;;
24557;SDS011;12726;49.148;8.582;2022-07-29T14:25:46;3.72;;;1.30;;
24557;SDS011;12726;49.148;8.582;2022-07-29T14:28:31;6.45;;;1.40;;
24557;SDS011;12726;49.148;8.582;2022-07-29T14:31:16;2.65;;;1.38;;
24557;SDS011;12726;49.148;8.582;2022-07-29T14:34:02;2.53;;;1.13;;
24557;SDS011;12726;49.148;8.582;2022-07-29T14:36:49;3.88;;;1.05;;
24557;SDS011;12726;49.148;8.582;2022-07-29T14:39:34;2.88;;;1.63;;
24557;SDS011;12726;49.148;8.582;2022-07-29T14:42:21;3.90;;;0.90;;
24557;SDS011;12726;49.148;8.582;2022-07-29T14:45:06;3.05;;;1.20;;
24557;SDS011;12726;49.148;8.582;2022-07-29T14:47:53;2.05;;;1.25;;
24557;SDS011;12726;49.148;8.582;2022-07-29T14:50:39;2.35;;;1.33;;
24557;SDS011;12726;49.148;8.582;2022-07-29T14:53:26;2.60;;;1.02;;
24557;SDS011;12726;49.148;8.582;2022-07-29T14:56:11;2.25;;;0.90;;
24557;SDS011;12726;49.148;8.582;2022-07-29T14:58:57;2.30;;;1.10;;
24557;SDS011;12726;49.148;8.582;2022-07-29T15:01:42;3.88;;;1.38;;
24557;SDS011;12726;49.148;8.582;2022-07-29T15:04:28;5.55;;;1.42;;
24557;SDS011;12726;49.148;8.582;2022-07-29T15:07:16;4.45;;;1.40;;
24557;SDS011;12726;49.148;8.582;2022-07-29T15:10:02;2.60;;;1.20;;
24557;SDS011;12726;49.148;8.582;2022-07-29T15:12:49;2.92;;;1.45;;
24557;SDS011;12726;49.148;8.582;2022-07-29T15:15:34;3.50;;;1.13;;
24557;SDS011;12726;49.148;8.582;2022-07-29T15:18:20;1.83;;;1.10;;
24557;SDS011;12726;49.148;8.582;2022-07-29T15:21:05;4.53;;;1.48;;
24557;SDS011;12726;49.148;8.582;2022-07-29T15:23:51;1.30;;;1.13;;
24557;SDS011;12726;49.148;8.582;2022-07-29T15:26:38;3.60;;;1.30;;
24557;SDS011;12726;49.148;8.582;2022-07-29T15:29:24;2.45;;;1.20;;
24557;SDS011;12726;49.148;8.582;2022-07-29T15:32:09;2.33;;;1.40;;
24557;SDS011;12726;49.148;8.582;2022-07-29T15:34:57;2.72;;;1.20;;
24557;SDS011;12726;49.148;8.582;2022-07-29T15:37:42;1.50;;;1.20;;
24557;SDS011;12726;49.148;8.582;2022-07-29T15:40:28;4.05;;;1.65;;
24557;SDS011;12726;49.148;8.582;2022-07-29T15:43:15;3.05;;;1.30;;
24557;SDS011;12726;49.148;8.582;2022-07-29T15:46:00;10.55;;;5.80;;
24557;SDS011;12726;49.148;8.582;2022-07-29T15:49:04;6.90;;;1.83;;
24557;SDS011;12726;49.148;8.582;2022-07-29T15:51:51;6.40;;;1.20;;
24557;SDS011;12726;49.148;8.582;2022-07-29T15:54:37;6.00;;;1.60;;
24557;SDS011;12726;49.148;8.582;2022-07-29T15:57:23;4.85;;;2.38;;
24557;SDS011;12726;49.148;8.582;2022-07-29T16:00:11;9.65;;;2.60;;
24557;SDS011;12726;49.148;8.582;2022-07-29T16:02:57;5.38;;;2.30;;
24557;SDS011;12726;49.148;8.582;2022-07-29T16:05:43;1.88;;;1.52;;
24557;SDS011;12726;49.148;8.582;2022-07-29T16:08:28;4.10;;;1.75;;
24557;SDS011;12726;49.148;8.582;2022-07-29T16:11:13;3.15;;;2.40;;
24557;SDS011;12726;49.148;8.582;2022-07-29T16:13:59;5.63;;;1.48;;
24557;SDS011;12726;49.148;8.582;2022-07-29T16:16:46;9.27;;;2.05;;
24557;SDS011;12726;49.148;8.582;2022-07-29T16:19:31;3.67;;;1.40;;
24557;SDS011;12726;49.148;8.582;2022-07-29T16:22:19;1.48;;;0.88;;
24557;SDS011;12726;49.148;8.582;2022-07-29T16:25:06;4.07;;;1.67;;
24557;SDS011;12726;49.148;8.582;2022-07-29T16:27:52;2.55;;;1.00;;
24557;SDS011;12726;49.148;8.582;2022-07-29T16:30:38;3.92;;;2.90;;
24557;SDS011;12726;49.148;8.582;2022-07-29T16:33:25;3.38;;;1.90;;
24557;SDS011;12726;49.148;8.582;2022-07-29T16:36:11;2.80;;;1.38;;
24557;SDS011;12726;49.148;8.582;2022-07-29T16:38:56;8.80;;;1.50;;
24557;SDS011;12726;49.148;8.582;2022-07-29T16:41:42;2.33;;;1.20;;
24557;SDS011;12726;49.148;8.582;2022-07-29T16:44:27;2.75;;;1.27;;
24557;SDS011;12726;49.148;8.582;2022-07-29T16:47:13;3.75;;;1.75;;
24557;SDS011;12726;49.148;8.582;2022-07-29T16:50:00;2.65;;;1.27;;
24557;SDS011;12726;49.148;8.582;2022-07-29T16:52:45;3.22;;;1.20;;
24557;SDS011;12726;49.148;8.582;2022-07-29T16:55:31;3.72;;;1.23;;
24557;SDS011;12726;49.148;8.582;2022-07-29T16:58:16;4.63;;;1.50;;
24557;SDS011;12726;49.148;8.582;2022-07-29T17:01:02;3.08;;;0.90;;
24557;SDS011;12726;49.148;8.582;2022-07-29T17:03:48;3.13;;;1.25;;
24557;SDS011;12726;49.148;8.582;2022-07-29T17:06:53;2.65;;;1.10;;